Time;durP1;ratioP1;P1;durP2;ratioP2;P2;SDS_P1;SDS_P2;PMS_P1;PMS_P2;Temp;Humidity;BMP_temperature;BMP_pressure;BME280_temperature;BME280_humidity;BME280_pressure;Samples;Min_cycle;Max_cycle;Signal;HPM_P1;HPM_P2
2022/11/29 00:01:10;;;;;;;5.63;3.07;;;;;;;4.85;nan;-23952.16;5032811;28;20274;-74
2022/11/29 00:03:36;;;;;;;5.20;3.00;;;;;;;5.23;nan;-23962.81;5033010;28;20190;-74
2022/11/29 00:06:06;;;;;;;4.73;2.27;;;;;;;5.32;nan;-23965.22;5034707;28;20175;-74
2022/11/29 00:08:32;;;;;;;4.93;2.50;;;;;;;4.99;nan;-23956.00;5033328;28;20175;-73
2022/11/29 00:11:05;;;;;;;3.40;2.77;;;;;;;4.69;nan;-23947.44;5034097;28;20255;-72
2022/11/29 00:13:31;;;;;;;2.97;2.53;;;;;;;4.99;nan;-23955.84;5034404;28;20179;-75
2022/11/29 00:16:08;;;;;;;3.40;2.90;;;;;;;4.95;nan;-23954.84;5034435;28;20211;-75
2022/11/29 00:18:34;;;;;;;4.23;3.03;;;;;;;5.37;nan;-23966.50;5034218;28;20168;-75
2022/11/29 00:21:07;;;;;;;3.17;2.13;;;;;;;5.40;nan;-23967.50;5034485;28;20560;-73
2022/11/29 00:23:33;;;;;;;5.77;3.47;;;;;;;5.30;nan;-23964.81;5033958;28;20551;-71
2022/11/29 00:26:06;;;;;;;4.37;3.03;;;;;;;5.24;nan;-23962.94;5034190;28;20603;-71
2022/11/29 00:28:33;;;;;;;5.77;3.80;;;;;;;5.21;nan;-23962.25;5034444;28;20167;-75
2022/11/29 00:30:59;;;;;;;4.97;3.60;;;;;;;5.27;nan;-23963.94;5034091;28;20180;-72
2022/11/29 00:33:25;;;;;;;4.40;3.23;;;;;;;5.08;nan;-23958.41;5034155;28;20175;-74
2022/11/29 00:35:50;;;;;;;4.67;2.93;;;;;;;4.92;nan;-23954.00;5034358;28;20527;-75
2022/11/29 00:38:16;;;;;;;3.07;2.70;;;;;;;5.23;nan;-23962.81;5033864;28;20180;-73
2022/11/29 00:40:41;;;;;;;5.20;3.50;;;;;;;4.82;nan;-23951.28;5033939;28;20643;-74
2022/11/29 00:43:06;;;;;;;5.60;3.43;;;;;;;5.28;nan;-23964.09;5034167;28;20176;-72
2022/11/29 00:45:32;;;;;;;4.63;3.50;;;;;;;5.23;nan;-23962.66;5033527;28;20180;-73
2022/11/29 00:47:57;;;;;;;3.73;2.77;;;;;;;4.94;nan;-23954.41;5033372;28;20237;-73
2022/11/29 00:50:23;;;;;;;4.13;2.67;;;;;;;5.22;nan;-23962.38;5032257;28;20274;-75
2022/11/29 00:52:48;;;;;;;4.23;3.00;;;;;;;4.84;nan;-23951.84;5034047;28;20194;-74
2022/11/29 00:55:14;;;;;;;3.63;3.00;;;;;;;4.84;nan;-23951.72;5032179;28;20179;-71
2022/11/29 00:57:39;;;;;;;4.40;2.67;;;;;;;5.17;nan;-23960.97;5034209;28;20172;-74
2022/11/29 01:00:05;;;;;;;5.27;2.83;;;;;;;5.03;nan;-23957.13;5033303;28;20179;-74
2022/11/29 01:02:31;;;;;;;4.87;3.30;;;;;;;5.09;nan;-23958.81;5033194;28;20696;-75
2022/11/29 01:04:56;;;;;;;6.17;3.33;;;;;;;4.79;nan;-23950.28;5033067;28;20254;-73
2022/11/29 01:07:21;;;;;;;3.80;3.17;;;;;;;5.12;nan;-23959.53;5034032;28;20202;-74
2022/11/29 01:09:47;;;;;;;3.97;2.90;;;;;;;4.79;nan;-23950.44;5033707;28;20221;-76
2022/11/29 01:12:12;;;;;;;4.03;2.63;;;;;;;4.82;nan;-23951.28;5031946;28;20171;-73
2022/11/29 01:14:38;;;;;;;3.37;2.27;;;;;;;5.09;nan;-23958.81;5033340;28;20639;-72
2022/11/29 01:17:03;;;;;;;6.67;3.57;;;;;;;5.23;nan;-23962.81;5033364;28;20285;-74
2022/11/29 01:19:28;;;;;;;3.90;3.20;;;;;;;5.14;nan;-23960.09;5032993;28;20167;-76
2022/11/29 01:21:54;;;;;;;2.87;2.63;;;;;;;5.15;nan;-23960.41;5031857;28;20234;-72
2022/11/29 01:24:21;;;;;;;4.07;3.23;;;;;;;4.81;nan;-23950.84;5032966;28;20175;-74
2022/11/29 01:26:47;;;;;;;4.57;3.03;;;;;;;5.12;nan;-23959.69;5031597;28;20211;-73
2022/11/29 01:29:12;;;;;;;5.27;3.77;;;;;;;5.14;nan;-23960.09;5031174;28;20254;-73
2022/11/29 01:31:38;;;;;;;5.20;3.97;;;;;;;5.29;nan;-23964.50;5032673;28;20639;-73
2022/11/29 01:34:06;;;;;;;4.47;3.30;;;;;;;5.37;nan;-23966.66;5032468;28;20610;-72
2022/11/29 01:36:31;;;;;;;5.20;3.47;;;;;;;5.37;nan;-23966.50;5032387;28;20191;-72
2022/11/29 01:38:59;;;;;;;7.27;3.67;;;;;;;5.06;nan;-23957.97;5030811;28;20182;-72
2022/11/29 01:41:27;;;;;;;3.60;3.07;;;;;;;5.30;nan;-23964.81;5032327;28;20171;-74
2022/11/29 01:44:01;;;;;;;5.03;3.17;;;;;;;4.85;nan;-23952.00;5032346;28;20213;-73
2022/11/29 01:46:29;;;;;;;3.97;3.07;;;;;;;5.23;nan;-23962.81;5032503;28;20182;-73
2022/11/29 01:49:00;;;;;;;6.43;3.40;;;;;;;5.07;nan;-23958.13;5032281;28;20236;-74
2022/11/29 01:51:27;;;;;;;4.63;3.27;;;;;;;4.98;nan;-23955.69;5032092;28;20163;-72
2022/11/29 01:53:54;;;;;;;9.13;4.23;;;;;;;5.31;nan;-23964.94;5031648;28;20167;-72
2022/11/29 01:56:20;;;;;;;7.23;3.50;;;;;;;4.86;nan;-23952.44;5032090;28;20261;-72
2022/11/29 01:58:45;;;;;;;3.63;3.30;;;;;;;4.87;nan;-23952.56;5032172;28;20172;-72
2022/11/29 02:01:11;;;;;;;5.07;2.57;;;;;;;5.27;nan;-23963.94;5032001;28;20191;-73
2022/11/29 02:03:37;;;;;;;7.13;3.53;;;;;;;5.26;nan;-23963.66;5032213;28;20170;-73
2022/11/29 02:06:05;;;;;;;7.67;3.67;;;;;;;5.36;nan;-23966.22;5030893;28;20638;-74
2022/11/29 02:08:39;;;;;;;5.77;3.70;;;;;;;5.29;nan;-23964.38;5032863;28;20194;-75
2022/11/29 02:11:16;;;;;;;8.17;4.33;;;;;;;5.14;nan;-23960.25;5032563;28;20638;-73
2022/11/29 02:14:40;;;;;;;4.93;3.27;;;;;;;5.21;nan;-23962.25;5032668;28;20261;-74
2022/11/29 02:17:24;;;;;;;5.40;3.63;;;;;;;5.21;nan;-23962.25;4965906;28;20245;-72
2022/11/29 02:20:11;;;;;;;4.43;2.80;;;;;;;5.18;nan;-23961.25;5032403;28;20236;-74
2022/11/29 02:22:56;;;;;;;4.87;3.97;;;;;;;5.22;nan;-23962.38;5032399;28;20207;-72
2022/11/29 02:25:28;;;;;;;4.87;3.50;;;;;;;5.25;nan;-23963.38;5031827;28;20203;-73
2022/11/29 02:28:14;;;;;;;11.17;4.23;;;;;;;4.88;nan;-23952.84;5032467;28;20175;-74
2022/11/29 02:31:25;;;;;;;6.67;3.37;;;;;;;5.14;nan;-23960.25;5032451;28;20221;-74
2022/11/29 02:34:05;;;;;;;8.30;4.27;;;;;;;5.12;nan;-23959.69;5008875;28;20279;-73
2022/11/29 02:36:41;;;;;;;5.03;2.77;;;;;;;5.04;nan;-23957.41;5030912;28;20232;-72
2022/11/29 02:39:06;;;;;;;6.77;4.60;;;;;;;5.18;nan;-23961.25;5032244;28;20265;-72
2022/11/29 02:41:40;;;;;;;5.47;3.67;;;;;;;5.19;nan;-23961.66;5031680;28;20611;-73
2022/11/29 02:44:15;;;;;;;4.87;3.20;;;;;;;4.87;nan;-23952.56;5031933;28;20167;-73
2022/11/29 02:46:55;;;;;;;5.17;3.83;;;;;;;5.08;nan;-23958.53;5030677;28;20182;-73
2022/11/29 02:49:40;;;;;;;6.73;3.83;;;;;;;5.11;nan;-23959.25;5031671;28;20185;-73
2022/11/29 02:52:12;;;;;;;11.87;5.10;;;;;;;4.66;nan;-23946.75;5031633;28;20221;-73
2022/11/29 02:54:53;;;;;;;9.10;4.37;;;;;;;4.91;nan;-23953.72;5031828;28;20167;-74
2022/11/29 02:57:22;;;;;;;8.33;4.43;;;;;;;5.12;nan;-23959.69;5031468;28;20733;-74
2022/11/29 02:59:47;;;;;;;10.03;4.47;;;;;;;5.07;nan;-23958.25;5031799;28;20178;-72
2022/11/29 03:02:41;;;;;;;9.53;4.77;;;;;;;5.04;nan;-23957.41;5031313;28;20641;-73
2022/11/29 03:05:19;;;;;;;4.67;3.87;;;;;;;5.08;nan;-23958.41;5031776;28;20237;-72
2022/11/29 03:08:25;;;;;;;10.00;5.53;;;;;;;5.01;nan;-23956.56;5031744;28;20167;-72
2022/11/29 03:11:28;;;;;;;7.63;4.70;;;;;;;4.96;nan;-23955.13;5010940;28;20647;-73
2022/11/29 03:13:59;;;;;;;6.57;4.97;;;;;;;4.86;nan;-23952.28;5035530;28;20195;-73
2022/11/29 03:16:42;;;;;;;6.33;4.10;;;;;;;4.85;nan;-23952.00;5034153;28;20195;-71
2022/11/29 03:19:40;;;;;;;8.53;5.10;;;;;;;5.02;nan;-23956.84;5035070;28;20262;-72
2022/11/29 03:22:30;;;;;;;7.67;4.43;;;;;;;4.86;nan;-23952.28;4993741;28;20569;-74
2022/11/29 03:25:08;;;;;;;5.30;3.37;;;;;;;4.81;nan;-23950.84;5035036;28;20623;-74
2022/11/29 03:27:46;;;;;;;8.50;4.40;;;;;;;4.82;nan;-23951.28;5035345;28;20179;-72
2022/11/29 03:30:15;;;;;;;6.53;4.33;;;;;;;4.48;nan;-23941.47;5035192;28;20179;-72
2022/11/29 03:33:05;;;;;;;6.63;4.37;;;;;;;4.95;nan;-23954.72;5035944;28;20254;-74
2022/11/29 03:36:10;;;;;;;8.30;3.93;;;;;;;4.80;nan;-23950.56;5034676;28;20743;-74
2022/11/29 03:38:44;;;;;;;4.97;3.60;;;;;;;4.80;nan;-23950.56;5035402;28;20218;-75
2022/11/29 03:41:35;;;;;;;7.70;4.40;;;;;;;4.81;nan;-23951.00;5034943;28;20242;-74
2022/11/29 03:44:25;;;;;;;7.37;4.67;;;;;;;4.51;nan;-23942.31;5034707;28;20187;-71
2022/11/29 03:47:03;;;;;;;6.83;3.97;;;;;;;4.87;nan;-23952.56;5034734;28;20198;-73
2022/11/29 03:50:11;;;;;;;9.93;4.53;;;;;;;4.96;nan;-23955.00;5035074;28;20175;-73
2022/11/29 03:53:01;;;;;;;7.67;3.77;;;;;;;4.83;nan;-23951.44;5033374;28;20191;-74
2022/11/29 03:55:51;;;;;;;7.50;4.87;;;;;;;4.79;nan;-23950.28;5033635;28;20198;-73
2022/11/29 03:58:33;;;;;;;6.33;4.10;;;;;;;4.61;nan;-23945.31;5034673;28;20172;-73
2022/11/29 04:01:36;;;;;;;6.03;3.97;;;;;;;4.98;nan;-23955.56;5034776;28;20179;-75
2022/11/29 04:04:20;;;;;;;6.00;3.83;;;;;;;5.09;nan;-23958.81;5033165;28;20687;-73
2022/11/29 04:06:45;;;;;;;7.67;4.80;;;;;;;4.97;nan;-23955.41;5034365;28;20185;-74
2022/11/29 04:09:39;;;;;;;7.67;5.60;;;;;;;5.13;nan;-23959.81;5034560;28;20261;-73
2022/11/29 04:12:33;;;;;;;11.20;4.63;;;;;;;5.16;nan;-23960.81;5034529;28;20198;-72
2022/11/29 04:15:13;;;;;;;8.23;4.07;;;;;;;5.11;nan;-23959.41;5034556;28;20175;-74
2022/11/29 04:17:47;;;;;;;10.30;5.63;;;;;;;5.10;nan;-23958.97;5034470;28;20344;-73
2022/11/29 04:20:46;;;;;;;8.00;5.23;;;;;;;5.03;nan;-23957.13;5033946;28;20641;-73
2022/11/29 04:23:30;;;;;;;8.60;4.80;;;;;;;5.11;nan;-23959.41;5034571;28;20627;-74
2022/11/29 04:26:24;;;;;;;8.30;4.80;;;;;;;5.04;nan;-23957.41;5035678;28;20278;-74
2022/11/29 04:29:09;;;;;;;10.87;4.87;;;;;;;5.06;nan;-23957.97;5022956;28;20205;-74
2022/11/29 04:31:54;;;;;;;11.90;4.93;;;;;;;4.86;nan;-23952.28;5036895;28;20183;-73
2022/11/29 04:34:47;;;;;;;9.33;4.83;;;;;;;4.87;nan;-23952.56;5036418;28;20259;-73
2022/11/29 04:37:44;;;;;;;8.07;4.70;;;;;;;4.56;nan;-23943.75;5035330;28;20210;-74
2022/11/29 04:40:40;;;;;;;9.97;5.90;;;;;;;4.95;nan;-23954.84;5035257;28;20543;-72
2022/11/29 04:43:33;;;;;;;11.27;5.27;;;;;;;4.65;nan;-23946.44;5037304;28;20214;-72
2022/11/29 04:46:36;;;;;;;9.00;5.43;;;;;;;4.96;nan;-23955.13;5036661;28;21016;-74
2022/11/29 04:49:33;;;;;;;7.60;4.67;;;;;;;5.08;nan;-23958.53;5036454;28;20546;-74
2022/11/29 04:52:35;;;;;;;11.93;5.87;;;;;;;5.03;nan;-23957.13;5036732;28;20191;-74
2022/11/29 04:55:20;;;;;;;12.50;6.13;;;;;;;5.06;nan;-23957.97;5036833;28;20185;-74
2022/11/29 04:58:17;;;;;;;8.07;4.90;;;;;;;5.07;nan;-23958.25;5034407;28;20227;-79
2022/11/29 05:01:11;;;;;;;11.13;5.50;;;;;;;5.09;nan;-23958.69;5035257;28;20194;-79
2022/11/29 05:03:51;;;;;;;9.67;6.03;;;;;;;5.01;nan;-23956.56;5028063;28;20655;-77
2022/11/29 05:06:46;;;;;;;9.43;5.40;;;;;;;4.92;nan;-23953.84;5034412;28;20187;-78
2022/11/29 05:09:30;;;;;;;10.97;6.13;;;;;;;4.97;nan;-23955.41;5008254;28;20659;-79
2022/11/29 05:12:04;;;;;;;10.10;5.60;;;;;;;5.08;nan;-23958.41;5035632;28;20664;-77
2022/11/29 05:15:31;;;;;;;11.77;6.23;;;;;;;5.18;nan;-23961.25;5034660;28;20186;-78
2022/11/29 05:18:35;;;;;;;11.40;6.07;;;;;;;4.83;nan;-23951.56;5018093;28;20682;-77
2022/11/29 05:21:18;;;;;;;23.37;7.50;;;;;;;5.14;nan;-23960.25;4998787;28;20191;-80
2022/11/29 05:24:10;;;;;;;10.47;5.87;;;;;;;4.85;nan;-23952.00;5030832;28;20175;-77
2022/11/29 05:26:59;;;;;;;9.43;5.53;;;;;;;5.23;nan;-23962.66;5030789;28;20171;-78
2022/11/29 05:29:40;;;;;;;11.27;5.17;;;;;;;4.82;nan;-23951.28;5031431;28;20546;-77
2022/11/29 05:32:27;;;;;;;13.73;6.27;;;;;;;3.10;nan;-23902.72;5033185;28;20663;-76
2022/11/29 05:35:26;;;;;;;8.37;5.60;;;;;;;4.31;nan;-23936.91;5032739;28;20199;-78
2022/11/29 05:38:12;;;;;;;7.93;5.00;;;;;;;5.02;nan;-23956.69;5031569;28;20608;-74
2022/11/29 05:41:02;;;;;;;14.00;6.03;;;;;;;5.19;nan;-23961.66;5032141;28;20172;-76
2022/11/29 05:43:27;;;;;;;11.00;5.00;;;;;;;5.23;nan;-23962.66;5032550;28;20179;-73
2022/11/29 05:46:08;;;;;;;14.43;6.03;;;;;;;5.09;nan;-23958.81;5032181;28;20175;-72
2022/11/29 05:48:59;;;;;;;10.93;5.27;;;;;;;5.32;nan;-23965.38;5030908;28;20232;-75
2022/11/29 05:51:33;;;;;;;11.03;5.07;;;;;;;5.37;nan;-23966.66;5031907;28;20175;-76
2022/11/29 05:54:43;;;;;;;11.27;6.17;;;;;;;5.37;nan;-23966.50;5031747;28;20171;-77
2022/11/29 05:57:28;;;;;;;11.50;6.07;;;;;;;4.99;nan;-23956.00;5030181;28;20187;-75
2022/11/29 05:59:56;;;;;;;15.13;6.13;;;;;;;5.38;nan;-23966.78;5030957;28;20262;-75
2022/11/29 06:02:21;;;;;;;13.03;6.33;;;;;;;5.41;nan;-23967.78;5031417;28;20692;-78
2022/11/29 06:05:21;;;;;;;10.50;6.00;;;;;;;5.40;nan;-23967.38;5031491;28;20199;-75
2022/11/29 06:08:11;;;;;;;9.50;5.83;;;;;;;5.04;nan;-23957.41;5027303;28;20179;-78
2022/11/29 06:10:40;;;;;;;12.57;4.63;;;;;;;5.39;nan;-23967.06;5030714;28;20172;-81
2022/11/29 06:13:35;;;;;;;14.40;5.10;;;;;;;5.43;nan;-23968.22;5029984;28;20179;-77
2022/11/29 06:16:21;;;;;;;12.80;6.47;;;;;;;5.38;nan;-23966.78;5030423;28;20203;-75
2022/11/29 06:19:07;;;;;;;10.33;5.80;;;;;;;5.42;nan;-23967.94;5031647;28;20555;-74
2022/11/29 06:21:44;;;;;;;8.90;5.77;;;;;;;5.44;nan;-23968.50;5031275;28;20184;-75
2022/11/29 06:24:28;;;;;;;12.03;6.60;;;;;;;5.47;nan;-23969.50;5031971;28;20266;-74
2022/11/29 06:26:54;;;;;;;9.60;5.80;;;;;;;5.23;nan;-23962.66;5031467;28;20230;-75
2022/11/29 06:29:26;;;;;;;13.40;6.40;;;;;;;5.18;nan;-23961.25;5031450;28;20598;-75
2022/11/29 06:32:24;;;;;;;15.60;7.70;;;;;;;5.53;nan;-23971.06;5031829;28;20183;-75
2022/11/29 06:34:59;;;;;;;8.10;5.57;;;;;;;5.62;nan;-23973.75;5021767;28;20198;-76
2022/11/29 06:37:39;;;;;;;12.47;6.33;;;;;;;5.22;nan;-23962.53;5031422;28;20229;-76
2022/11/29 06:40:08;;;;;;;13.13;6.03;;;;;;;3.83;nan;-23923.25;5031045;28;20187;-75
2022/11/29 06:42:33;;;;;;;9.23;6.17;;;;;;;5.50;nan;-23970.22;5030938;28;20615;-76
2022/11/29 06:45:02;;;;;;;15.30;6.93;;;;;;;5.64;nan;-23974.31;5030585;28;20168;-75
2022/11/29 06:47:34;;;;;;;13.57;6.80;;;;;;;5.63;nan;-23974.03;5030545;28;20185;-76
2022/11/29 06:50:17;;;;;;;15.97;6.50;;;;;;;5.19;nan;-23961.66;5034931;28;20187;-74
2022/11/29 06:52:57;;;;;;;19.67;7.20;;;;;;;5.78;nan;-23978.16;5035260;28;20171;-75
2022/11/29 06:55:31;;;;;;;9.33;5.57;;;;;;;5.71;nan;-23976.16;5035205;28;20183;-75
2022/11/29 06:57:56;;;;;;;12.97;5.80;;;;;;;5.58;nan;-23972.63;5033642;28;20232;-73
2022/11/29 07:00:33;;;;;;;10.40;5.67;;;;;;;5.61;nan;-23973.47;5035117;28;20195;-75
2022/11/29 07:03:14;;;;;;;11.43;5.53;;;;;;;5.45;nan;-23968.78;5032736;28;20254;-76
2022/11/29 07:05:39;;;;;;;12.93;5.93;;;;;;;5.58;nan;-23972.63;5033566;28;20294;-74
2022/11/29 07:08:17;;;;;;;12.43;5.90;;;;;;;6.02;nan;-23984.97;5034903;28;20717;-74
2022/11/29 07:10:44;;;;;;;8.97;5.03;;;;;;;5.86;nan;-23980.44;5034289;28;20171;-74
2022/11/29 07:13:12;;;;;;;8.80;4.83;;;;;;;6.00;nan;-23984.28;5035013;28;20210;-73
2022/11/29 07:15:44;;;;;;;7.10;4.67;;;;;;;5.79;nan;-23978.59;5034802;28;20195;-73
2022/11/29 07:18:27;;;;;;;9.03;4.67;;;;;;;5.76;nan;-23977.59;5034475;28;20608;-73
2022/11/29 07:21:34;;;;;;;6.57;4.17;;;;;;;5.97;nan;-23983.56;5033326;28;20321;-74
2022/11/29 07:24:21;;;;;;;5.43;3.97;;;;;;;5.63;nan;-23973.91;5010638;28;20195;-74
2022/11/29 07:26:52;;;;;;;8.77;4.97;;;;;;;5.91;nan;-23981.88;5034368;28;20183;-73
2022/11/29 07:29:46;;;;;;;6.93;4.87;;;;;;;5.88;nan;-23981.00;5033489;28;20197;-74
2022/11/29 07:32:22;;;;;;;6.43;3.97;;;;;;;5.91;nan;-23981.88;5033266;28;20512;-73
2022/11/29 07:35:06;;;;;;;7.17;4.83;;;;;;;5.82;nan;-23979.31;5034667;28;20183;-76
2022/11/29 07:37:45;;;;;;;6.83;3.93;;;;;;;6.23;nan;-23990.81;5034272;28;20202;-72
2022/11/29 07:40:19;;;;;;;7.73;4.27;;;;;;;6.16;nan;-23988.81;5034556;28;20210;-73
2022/11/29 07:43:04;;;;;;;8.90;4.67;;;;;;;6.32;nan;-23993.22;5034480;28;20207;-74
2022/11/29 07:45:32;;;;;;;6.13;4.00;;;;;;;6.31;nan;-23993.09;5032648;28;20194;-75
2022/11/29 07:47:58;;;;;;;7.97;4.03;;;;;;;5.92;nan;-23982.16;5034113;28;20313;-73
2022/11/29 07:50:25;;;;;;;6.07;3.90;;;;;;;6.42;nan;-23996.06;5034055;28;20172;-73
2022/11/29 07:52:51;;;;;;;5.27;3.47;;;;;;;6.23;nan;-23990.81;5033981;28;20182;-72
2022/11/29 07:55:19;;;;;;;5.50;3.63;;;;;;;6.65;nan;-24002.59;5032427;28;20523;-73
2022/11/29 07:57:44;;;;;;;5.43;4.03;;;;;;;6.50;nan;-23998.34;5033375;28;20221;-73
2022/11/29 08:00:11;;;;;;;6.10;3.27;;;;;;;6.50;nan;-23998.47;5033090;28;20555;-77
2022/11/29 08:02:37;;;;;;;6.27;3.83;;;;;;;6.92;nan;-24010.25;5032449;28;20231;-74
2022/11/29 08:05:03;;;;;;;8.37;4.37;;;;;;;6.84;nan;-24007.84;5032650;28;20245;-74
2022/11/29 08:07:29;;;;;;;7.43;4.47;;;;;;;7.09;nan;-24015.06;5032350;28;20171;-73
2022/11/29 08:09:55;;;;;;;4.77;3.57;;;;;;;6.82;nan;-24007.28;5033588;28;20203;-74
2022/11/29 08:12:22;;;;;;;5.37;3.33;;;;;;;7.19;nan;-24017.78;5032659;28;20578;-74
2022/11/29 08:14:47;;;;;;;4.07;3.40;;;;;;;7.22;nan;-24018.47;5033391;28;20677;-74
2022/11/29 08:17:14;;;;;;;4.90;3.43;;;;;;;7.00;nan;-24012.53;5034103;28;20302;-74
2022/11/29 08:19:40;;;;;;;10.87;3.90;;;;;;;6.75;nan;-24005.28;5033245;28;20175;-72
2022/11/29 08:22:05;;;;;;;4.43;3.20;;;;;;;6.77;nan;-24005.84;5033671;28;20171;-73
2022/11/29 08:24:32;;;;;;;3.20;2.87;;;;;;;6.85;nan;-24008.25;5033450;28;20221;-73
2022/11/29 08:26:57;;;;;;;5.73;3.40;;;;;;;7.27;nan;-24019.91;5031672;28;20251;-75
2022/11/29 08:29:22;;;;;;;4.97;2.93;;;;;;;6.89;nan;-24009.25;5032769;28;20561;-74
2022/11/29 08:31:52;;;;;;;7.47;4.50;;;;;;;7.01;nan;-24012.81;5033561;28;20219;-73
2022/11/29 08:34:22;;;;;;;4.90;3.60;;;;;;;7.44;nan;-24024.72;5033369;28;20198;-73
2022/11/29 08:36:48;;;;;;;7.30;4.23;;;;;;;7.07;nan;-24014.38;5033064;28;20199;-73
2022/11/29 08:39:14;;;;;;;6.20;4.03;;;;;;;4.49;nan;-23941.75;5032138;28;20563;-74
2022/11/29 08:41:39;;;;;;;8.93;4.77;;;;;;;7.22;nan;-24018.47;5033098;28;20322;-75
2022/11/29 08:44:06;;;;;;;8.07;4.63;;;;;;;7.27;nan;-24019.91;5032319;28;20281;-76
2022/11/29 08:49:16;;;;;;;7.23;4.10;;;;;;;7.34;nan;-24021.88;5032923;28;20175;-74
2022/11/29 08:51:41;;;;;;;11.17;4.43;;;;;;;7.38;nan;-24023.16;5032925;28;20171;-77
2022/11/29 08:54:06;;;;;;;8.97;4.10;;;;;;;6.94;nan;-24010.69;5031276;28;20285;-75
2022/11/29 08:56:32;;;;;;;7.07;4.50;;;;;;;7.45;nan;-24025.00;5032259;28;20198;-74
2022/11/29 08:58:58;;;;;;;12.47;4.83;;;;;;;7.67;nan;-24031.09;5032703;28;20647;-76
2022/11/29 09:01:23;;;;;;;11.27;4.67;;;;;;;7.31;nan;-24021.03;5032663;28;20285;-77
2022/11/29 09:03:58;;;;;;;6.97;4.57;;;;;;;7.64;nan;-24030.38;5032822;28;20258;-73
2022/11/29 09:06:27;;;;;;;8.70;4.33;;;;;;;7.61;nan;-24029.41;5033040;28;20255;-75
2022/11/29 09:08:56;;;;;;;7.47;4.13;;;;;;;7.27;nan;-24020.03;5032405;28;20174;-75
2022/11/29 09:11:23;;;;;;;7.97;4.67;;;;;;;7.30;nan;-24020.88;5030838;28;20557;-75
2022/11/29 09:13:55;;;;;;;6.20;3.57;;;;;;;7.71;nan;-24032.38;5031437;28;20184;-74
2022/11/29 09:16:24;;;;;;;7.07;4.43;;;;;;;6.37;nan;-23994.66;5033409;28;20209;-75
2022/11/29 09:18:51;;;;;;;7.40;4.50;;;;;;;7.52;nan;-24026.97;5034489;28;20179;-73
2022/11/29 09:21:17;;;;;;;6.60;4.13;;;;;;;7.82;nan;-24035.34;5033479;28;20160;-76
2022/11/29 09:23:44;;;;;;;8.30;4.50;;;;;;;7.82;nan;-24035.34;5032529;28;20674;-75
2022/11/29 09:26:14;;;;;;;9.00;4.60;;;;;;;7.89;nan;-24037.47;5032861;28;20179;-77
2022/11/29 09:28:45;;;;;;;4.90;3.93;;;;;;;7.34;nan;-24022.03;5031041;28;20186;-73
2022/11/29 09:31:18;;;;;;;7.97;4.33;;;;;;;8.07;nan;-24042.44;5031962;28;20547;-75
2022/11/29 09:33:45;;;;;;;10.40;4.93;;;;;;;7.71;nan;-24032.38;5030662;28;20622;-72
2022/11/29 09:36:11;;;;;;;8.50;4.20;;;;;;;7.62;nan;-24029.81;5031642;28;20223;-75
2022/11/29 09:39:01;;;;;;;8.00;4.60;;;;;;;7.75;nan;-24033.38;5031816;28;20250;-75
2022/11/29 09:42:03;;;;;;;6.77;4.00;;;;;;;7.95;nan;-24039.16;5027814;28;20228;-74
2022/11/29 09:44:47;;;;;;;6.47;4.40;;;;;;;7.88;nan;-24037.19;5025994;28;20567;-74
2022/11/29 09:47:17;;;;;;;6.30;3.77;;;;;;;8.12;nan;-24043.69;5029550;28;20202;-74
2022/11/29 09:49:45;;;;;;;7.40;4.00;;;;;;;8.31;nan;-24049.09;5031271;28;20188;-73
2022/11/29 09:52:31;;;;;;;5.00;3.37;;;;;;;8.57;nan;-24056.44;5032005;28;20179;-75
2022/11/29 09:55:21;;;;;;;6.97;3.43;;;;;;;8.55;nan;-24055.75;5006929;28;20235;-73
2022/11/29 09:57:48;;;;;;;8.87;4.03;;;;;;;8.50;nan;-24054.31;5029787;28;20191;-76
2022/11/29 10:00:18;;;;;;;7.13;4.37;;;;;;;7.79;nan;-24034.50;5029682;28;20187;-76
2022/11/29 10:02:49;;;;;;;9.17;3.80;;;;;;;8.32;nan;-24049.38;5029979;28;20222;-72
2022/11/29 10:05:23;;;;;;;8.53;4.37;;;;;;;8.42;nan;-24052.34;5031633;28;20193;-74
2022/11/29 10:07:49;;;;;;;4.77;3.53;;;;;;;8.64;nan;-24058.28;5029725;28;20181;-73
2022/11/29 10:10:26;;;;;;;6.33;3.33;;;;;;;8.26;nan;-24047.66;5031323;28;20676;-72
2022/11/29 10:13:06;;;;;;;5.90;3.80;;;;;;;9.02;nan;-24069.03;5031723;28;20217;-75
2022/11/29 10:15:40;;;;;;;5.37;3.63;;;;;;;8.74;nan;-24061.25;5031389;28;20622;-77
2022/11/29 10:18:15;;;;;;;4.17;3.23;;;;;;;8.81;nan;-24063.25;5031301;28;20649;-71
2022/11/29 10:20:44;;;;;;;3.93;2.83;;;;;;;8.68;nan;-24059.56;5031181;28;20178;-73
2022/11/29 10:23:32;;;;;;;4.23;3.20;;;;;;;8.88;nan;-24064.94;5031251;28;20187;-75
2022/11/29 10:26:06;;;;;;;4.40;2.63;;;;;;;9.01;nan;-24068.63;5030360;28;20187;-76
2022/11/29 10:28:34;;;;;;;4.07;2.50;;;;;;;8.86;nan;-24064.66;5030679;28;20168;-74
2022/11/29 10:31:26;;;;;;;3.70;3.00;;;;;;;8.31;nan;-24049.22;5030553;28;20183;-74
2022/11/29 10:33:56;;;;;;;5.50;2.57;;;;;;;8.20;nan;-24045.97;5030832;28;20175;-74
2022/11/29 10:36:45;;;;;;;5.10;3.13;;;;;;;9.03;nan;-24069.19;5030112;28;20191;-73
2022/11/29 10:39:36;;;;;;;3.30;2.87;;;;;;;8.88;nan;-24065.22;5029400;28;20176;-73
2022/11/29 10:42:47;;;;;;;3.97;2.97;;;;;;;9.04;nan;-24069.59;5031296;28;20159;-74
2022/11/29 10:45:01;;;;;;;9.30;4.17;;;;;;;8.94;nan;-24066.63;5030879;28;20187;-74
2022/11/29 10:47:27;;;;;;;3.90;3.20;;;;;;;8.88;nan;-24064.94;5029472;28;20263;-76
2022/11/29 10:49:52;;;;;;;6.27;3.03;;;;;;;8.65;nan;-24058.72;5031164;28;20310;-75
2022/11/29 10:52:22;;;;;;;5.10;2.80;;;;;;;8.96;nan;-24067.19;5031176;28;20172;-75
2022/11/29 10:54:52;;;;;;;4.90;2.87;;;;;;;8.72;nan;-24060.69;5029632;28;20194;-64
2022/11/29 10:57:21;;;;;;;6.27;3.13;;;;;;;8.77;nan;-24061.97;5030029;28;20639;-63
2022/11/29 11:00:07;;;;;;;7.07;2.57;;;;;;;8.48;nan;-24053.75;5031712;28;20254;-64
2022/11/29 11:02:33;;;;;;;3.23;2.93;;;;;;;8.87;nan;-24064.78;5031933;28;20584;-63
2022/11/29 11:05:00;;;;;;;5.77;2.77;;;;;;;8.39;nan;-24051.34;5031990;28;20187;-65
2022/11/29 11:07:34;;;;;;;4.13;3.00;;;;;;;8.76;nan;-24061.69;5031740;28;20199;-63
2022/11/29 11:10:04;;;;;;;6.07;3.97;;;;;;;8.89;nan;-24065.34;5031580;28;20167;-65
2022/11/29 11:12:32;;;;;;;5.83;3.37;;;;;;;8.90;nan;-24065.50;5031558;28;20241;-66
2022/11/29 11:15:28;;;;;;;6.00;3.63;;;;;;;8.96;nan;-24067.19;5031763;28;20168;-65
2022/11/29 11:17:59;;;;;;;5.97;3.20;;;;;;;8.96;nan;-24067.19;5029874;28;20659;-64
2022/11/29 11:20:26;;;;;;;5.80;2.90;;;;;;;;;;5031353;28;20230;-64
2022/11/29 11:23:18;;;;;;;5.77;3.07;;;;;;;8.79;nan;-24062.53;5030923;28;20175;-64
2022/11/29 11:25:44;;;;;;;3.63;2.77;;;;;;;8.73;nan;-24060.84;5031434;28;20505;-65
2022/11/29 11:28:33;;;;;;;4.63;3.20;;;;;;;8.93;nan;-24066.50;5031135;28;20192;-62
2022/11/29 11:31:06;;;;;;;5.27;3.10;;;;;;;8.83;nan;-24063.66;5031784;28;20245;-66
2022/11/29 11:33:35;;;;;;;3.83;3.10;;;;;;;8.88;nan;-24064.94;5033090;28;20178;-66
2022/11/29 11:36:19;;;;;;;4.93;2.40;;;;;;;8.92;nan;-24066.06;5035217;28;20678;-62
2022/11/29 11:38:52;;;;;;;3.83;2.93;;;;;;;8.90;nan;-24065.66;5035199;28;20377;-66
2022/11/29 11:44:39;;;;;;;4.33;2.17;;;;;;;8.90;nan;-24065.66;5023170;28;20188;-64
2022/11/29 11:47:11;;;;;;;4.37;2.50;;;;;;;8.81;nan;-24063.25;5026776;28;20265;-66
2022/11/29 11:49:45;;;;;;;4.13;3.27;;;;;;;8.51;nan;-24054.75;5034642;28;20224;-63
2022/11/29 11:52:34;;;;;;;5.70;2.90;;;;;;;8.60;nan;-24057.16;5034818;28;20174;-64
2022/11/29 11:55:04;;;;;;;3.67;3.00;;;;;;;8.69;nan;-24059.84;5034935;28;20253;-67
2022/11/29 11:57:30;;;;;;;3.00;2.47;;;;;;;8.39;nan;-24051.50;5039467;28;20195;-65
2022/11/29 11:59:57;;;;;;;3.97;3.07;;;;;;;8.37;nan;-24050.94;5017611;28;20180;-62
2022/11/29 12:02:27;;;;;;;3.93;2.53;;;;;;;8.60;nan;-24057.16;5032330;28;20227;-63
2022/11/29 12:04:59;;;;;;;3.80;2.67;;;;;;;8.39;nan;-24051.34;5033820;28;20224;-63
2022/11/29 12:07:50;;;;;;;4.93;3.37;;;;;;;8.40;nan;-24051.63;5032961;28;20160;-77
2022/11/29 12:10:24;;;;;;;5.00;3.33;;;;;;;8.38;nan;-24051.06;5032490;28;20233;-74
2022/11/29 12:12:50;;;;;;;4.20;2.70;;;;;;;8.08;nan;-24042.56;5031951;28;20176;-73
2022/11/29 12:15:29;;;;;;;4.50;2.47;;;;;;;8.20;nan;-24045.97;5034117;28;20171;-74
2022/11/29 12:18:02;;;;;;;4.07;2.70;;;;;;;8.15;nan;-24044.56;5034042;28;20163;-74
2022/11/29 12:20:44;;;;;;;5.30;2.87;;;;;;;8.16;nan;-24044.84;5033629;28;20241;-76
2022/11/29 12:23:13;;;;;;;5.40;2.37;;;;;;;8.28;nan;-24048.22;5033078;28;20218;-75
2022/11/29 12:25:46;;;;;;;6.23;3.73;;;;;;;8.11;nan;-24043.41;5032788;28;20171;-73
2022/11/29 12:28:13;;;;;;;3.70;2.77;;;;;;;8.09;nan;-24042.84;5033381;28;20176;-74
2022/11/29 12:30:52;;;;;;;6.30;3.23;;;;;;;8.08;nan;-24042.56;5032921;28;20179;-72
2022/11/29 12:33:20;;;;;;;4.73;3.00;;;;;;;8.34;nan;-24049.94;5031437;28;20164;-73
2022/11/29 12:36:06;;;;;;;4.23;2.43;;;;;;;8.32;nan;-24049.38;5032930;28;20188;-74
2022/11/29 12:38:52;;;;;;;5.90;3.30;;;;;;;8.25;nan;-24047.38;5032969;28;20706;-73